Jamestown Regional Airport
KJMS : now visible

Airfield :











YOU CAN JOIN US ON...

 
LOGIN :

Register | Disclaimer

   EN    FR    IT 

 









Legend :    VFR   Marginal VFR   IFR   Intensive IFR   Very Intensive IFR
Visi :
Ceiling :
>= 8 km
>= 3000ft
5 to 8 km
1000 to 3000 ft
1500m to 5 km
500 to 1000 ft
800 to 1500m
200 to 500 ft
< 800m
< 200 ft
Symbols :   Thunderstorms  Fog  Heavy snow  Heavy precipitations  Wind > 20 kt







- Airport Elevation : 1500 ft
- IATA code : JMS


KJMS - Jamestown Regional

CURRENT METAR :
  • 201556Z AUTO 18016G31KT 10SM FEW014 24/21 A2975 RMK AO2 PK WND 17033/1523 SLP069 T02440211

EXPIRED METARs :
  • 201456Z AUTO 18017KT 10SM BKN011 22/21 A2977 RMK AO2 SLP077 60005 T02220206 58015
  • 201436Z AUTO 16013G24KT 10SM FEW009 22/20 A2977 RMK AO2 T02170200
  • 201356Z AUTO 16011KT 10SM FEW043 FEW110 21/19 A2979 RMK AO2 RAE09B36E48 TSE20 SLP085 P0004 T02060194

TAF KJMS
Valid from the 20 at 14:00 until the 21 at 12:00 UTC


201416Z 2014/2112 16011KT P6SM FEW045 FEW110
FM201500 17021G30KT P6SM FEW050 SCT250
FM210000 16017G26KT 6SM SHRA VCTS SCT029CB BKN040
FM210700 17009KT 5SM SHRA BR BKN025 OVC050
FM211000 20010KT 6SM SHRA BR SCT015 OVC020
No reported NOTAMs for that airfield.



MET'MAP, your aeronautical weather chart ! - Copyright ORBIFLY December 2007 - Disclaimer

ORBIFLY MET'MAP TEAM :

Programming & Development : Alexandra Zaïnal
Concept & Development : Baudouin d'Aumeries
Co-Development & Prog : Marc-Olivier Méhu
Technical & hardware support : Manuel Goepfert

Contact : metmap@orbifly.com




SOURCES & CREDITS :

   NOAA       Earth
Advisory